Menu Close Menu
Station Historical Data
Daily Summary for April 26, 2017 Units:  Metric    English   Both
« Previous Day
Next Day »
Daily Weekly Monthly Yearly Custom
  High: Low: Average:
Temperature: 27.8 °C 13.1 °C 20.3 °C
Dew Point: 16.3 °C 11.4 °C 13.6 °C
Humidity: 93% 43% 69%
Wind Speed: 1.6km/h 0km/h 0km/h
Wind Gust: 8km/h - -
Wind- - NW
Pressure: 1011.1 hPa 1007 hPa -
Precipitation: 0 mm    
Historical Graphs
 
 
Tabular Data for April 26, 2017
Time Temperature Dew Point Pressure Wind Wind Speed Wind Gust Humidity Rainfall Rate (Hourly) solar Conditions
00:00 15.7 °C 13.2 °C 1008.4 hPa Calm     85% 0 mm WeatherDisplay:10.37 W/m2 SCT
00:15 15.6 °C 13.2 °C 1008.4 hPa Calm     86% 0 mm WeatherDisplay:10.37 W/m2 SCT
00:30 15.3 °C 13.2 °C 1008.4 hPa Calm     87% 0 mm WeatherDisplay:10.37 W/m2 SCT
00:45 14.9 °C 12.8 °C 1008.7 hPa Calm     87% 0 mm WeatherDisplay:10.37 W/m2 SCT
01:00 14.7 °C 12.8 °C 1008.7 hPa Calm     88% 0 mm WeatherDisplay:10.37 W/m2 SCT
01:15 14.6 °C 12.8 °C 1008.7 hPa Calm     89% 0 mm WeatherDisplay:10.37 W/m2 SCT
01:30 14.4 °C 12.7 °C 1008.4 hPa Calm     89% 0 mm WeatherDisplay:10.37 W/m2 SCT
01:45 14.3 °C 12.6 °C 1008.4 hPa Calm     89% 0 mm WeatherDisplay:10.37 W/m2 SCT
02:00 14.1 °C 12.3 °C 1008.4 hPa Calm     89% 0 mm WeatherDisplay:10.37 W/m2 SCT
02:15 13.9 °C 12.3 °C 1008.4 hPa Calm     90% 0 mm WeatherDisplay:10.37 W/m2 SCT
02:30 13.8 °C 12.2 °C 1008.4 hPa Calm     90% 0 mm WeatherDisplay:10.37 W/m2 SCT
02:45 13.7 °C 12.1 °C 1008.4 hPa Calm     90% 0 mm WeatherDisplay:10.37 W/m2 SCT
03:00 13.6 °C 12 °C 1008 hPa Calm     90% 0 mm WeatherDisplay:10.37 W/m2 SCT
03:15 13.5 °C 11.9 °C 1008 hPa Calm     90% 0 mm WeatherDisplay:10.37 W/m2 SCT
03:30 13.1 °C 11.4 °C 1008 hPa Calm     90% 0 mm WeatherDisplay:10.37 W/m2 SCT
03:45 13.1 °C 11.4 °C 1007.7 hPa Calm     90% 0 mm WeatherDisplay:10.37 W/m2 SCT
04:00 13.1 °C 11.4 °C 1007.7 hPa Calm     90% 0 mm WeatherDisplay:10.37 W/m2 SCT
04:15 13.1 °C 11.4 °C 1007.7 hPa Calm     90% 0 mm WeatherDisplay:10.37 W/m2 SCT
04:30 13.1 °C 11.4 °C 1008 hPa Calm     90% 0 mm WeatherDisplay:10.37 W/m2 SCT
04:45 13.1 °C 11.4 °C 1008 hPa Calm     90% 0 mm WeatherDisplay:10.37 W/m2 SCT
05:00 13.1 °C 11.4 °C 1008 hPa Calm     90% 0 mm WeatherDisplay:10.37 W/m2 SCT
05:15 13.1 °C 11.4 °C 1008 hPa Calm     90% 0 mm WeatherDisplay:10.37 W/m2 SCT
05:30 13.1 °C 11.4 °C 1008 hPa Calm     90% 0 mm WeatherDisplay:10.37 W/m2 SCT
05:45 13.1 °C 11.4 °C 1008 hPa Calm     90% 0 mm WeatherDisplay:10.37 W/m2 SCT
06:00 13.1 °C 11.4 °C 1008 hPa Calm     90% 0 mm WeatherDisplay:10.37 W/m2 SCT
06:15 13.1 °C 11.4 °C 1008 hPa Calm     90% 0 mm WeatherDisplay:10.37 W/m2 SCT
06:30 13.1 °C 11.4 °C 1008 hPa Calm     90% 0 mm WeatherDisplay:10.37 W/m2 SCT
06:45 13.1 °C 11.4 °C 1008.4 hPa Calm     90% 0 mm WeatherDisplay:10.37 W/m2 SCT
07:00 13.1 °C 11.4 °C 1008.7 hPa Calm     90% 0 mm WeatherDisplay:10.37 W/m2 SCT
07:15 13.1 °C 11.4 °C 1009 hPa Calm     90% 0 mm WeatherDisplay:10.37 W/m2 SCT
07:30 13.1 °C 11.4 °C 1009.7 hPa Calm     90% 0 mm WeatherDisplay:10.37 W/m2 SCT
07:45 13.1 °C 11.4 °C 1010 hPa Calm     90% 0 mm WeatherDisplay:10.37 W/m2 SCT
08:00 13.8 °C 12.7 °C 1010.4 hPa Calm     93% 0 mm WeatherDisplay:10.37 W/m2 SCT
08:15 14.7 °C 13.5 °C 1010.4 hPa Calm     93% 0 mm WeatherDisplay:10.37 W/m2 SCT
08:30 15.6 °C 14.3 °C 1010.7 hPa Calm     92% 0 mm WeatherDisplay:10.37 W/m2 SCT
08:45 17.1 °C 14.9 °C 1010.7 hPa Calm   1.6 km/h 87% 0 mm WeatherDisplay:10.37 W/m2 SCT
09:00 18.6 °C 14.9 °C 1010.7 hPa Calm   1.6 km/h 79% 0 mm WeatherDisplay:10.37 W/m2 SCT
09:15 19.3 °C 14.8 °C 1011.1 hPa Calm   1.6 km/h 75% 0 mm WeatherDisplay:10.37 W/m2 SCT
09:30 20.2 °C 14.9 °C 1011.1 hPa Calm   4.8 km/h 72% 0 mm WeatherDisplay:10.37 W/m2 SCT
09:45 20.5 °C 14.6 °C 1011.1 hPa WNW 1.6 km/h 4.8 km/h 69% 0 mm WeatherDisplay:10.37 W/m2 SCT
10:00 21.1 °C 15.2 °C 1011.1 hPa Calm   3.2 km/h 69% 0 mm WeatherDisplay:10.37 W/m2 SCT
10:15 22.1 °C 14.9 °C 1011.1 hPa Calm   3.2 km/h 64% 0 mm WeatherDisplay:10.37 W/m2 SCT
10:30 21.9 °C 14.8 °C 1011.1 hPa Calm   8 km/h 64% 0 mm WeatherDisplay:10.37 W/m2 SCT
10:45 22.3 °C 14.7 °C 1010.7 hPa Calm   3.2 km/h 62% 0 mm WeatherDisplay:10.37 W/m2 SCT
11:00 22.2 °C 14.3 °C 1010.7 hPa Calm   1.6 km/h 61% 0 mm WeatherDisplay:10.37 W/m2 SCT
11:15 22.8 °C 14.9 °C 1010.7 hPa Calm   1.6 km/h 61% 0 mm WeatherDisplay:10.37 W/m2 SCT
11:30 23.7 °C 15.5 °C 1010.4 hPa Calm   3.2 km/h 60% 0 mm WeatherDisplay:10.37 W/m2 SCT
11:45 24.2 °C 14.6 °C 1010.4 hPa Calm   3.2 km/h 55% 0 mm WeatherDisplay:10.37 W/m2 SCT
12:00 24.8 °C 15.1 °C 1010.7 hPa Calm   3.2 km/h 55% 0 mm WeatherDisplay:10.37 W/m2 SCT
12:15 25.4 °C 15.4 °C 1010.4 hPa Calm   1.6 km/h 54% 0 mm WeatherDisplay:10.37 W/m2 SCT
12:30 26.1 °C 16.3 °C 1010 hPa Calm   3.2 km/h 55% 0 mm WeatherDisplay:10.37 W/m2 SCT
12:45 27.2 °C 14.9 °C 1010 hPa Calm   3.2 km/h 47% 0 mm WeatherDisplay:10.37 W/m2 SCT
13:15 27.3 °C 14.3 °C 1009.7 hPa NNW 1.6 km/h 4.8 km/h 45% 0 mm WeatherDisplay:10.37 W/m2 SCT
13:30 27.6 °C 14.2 °C 1009.7 hPa Calm   3.2 km/h 44% 0 mm WeatherDisplay:10.37 W/m2 SCT
13:45 27.6 °C 13.9 °C 1009.4 hPa Calm   3.2 km/h 43% 0 mm WeatherDisplay:10.37 W/m2 SCT
14:00 27.7 °C 14 °C 1009 hPa NW 1.6 km/h 3.2 km/h 43% 0 mm WeatherDisplay:10.37 W/m2 SCT
14:15 27.8 °C 14.8 °C 1009 hPa Calm   3.2 km/h 45% 0 mm WeatherDisplay:10.37 W/m2 SCT
14:30 27.5 °C 14.8 °C 1009 hPa Calm   4.8 km/h 46% 0 mm WeatherDisplay:10.37 W/m2 SCT
14:45 27.2 °C 13.9 °C 1009.4 hPa Calm   4.8 km/h 44% 0 mm WeatherDisplay:10.37 W/m2 SCT
15:00 26.9 °C 14.3 °C 1009 hPa Calm   3.2 km/h 46% 0 mm WeatherDisplay:10.37 W/m2 SCT
15:15 27 °C 14.1 °C 1008.7 hPa Calm   4.8 km/h 45% 0 mm WeatherDisplay:10.37 W/m2 SCT
15:30 26.7 °C 13.7 °C 1008.7 hPa Calm   3.2 km/h 45% 0 mm WeatherDisplay:10.37 W/m2 SCT
15:45 26.8 °C 14.2 °C 1008.7 hPa Calm   4.8 km/h 46% 0 mm WeatherDisplay:10.37 W/m2 SCT
16:00 26.6 °C 13.3 °C 1008.4 hPa Calm   3.2 km/h 44% 0 mm WeatherDisplay:10.37 W/m2 SCT
16:15 26.7 °C 13.4 °C 1008.4 hPa Calm   3.2 km/h 44% 0 mm WeatherDisplay:10.37 W/m2 SCT
16:30 26.6 °C 14.3 °C 1008 hPa Calm   3.2 km/h 47% 0 mm WeatherDisplay:10.37 W/m2 SCT
16:45 26.4 °C 14.2 °C 1008 hPa Calm   4.8 km/h 47% 0 mm WeatherDisplay:10.37 W/m2 SCT
17:00 26.5 °C 13.6 °C 1008 hPa Calm   4.8 km/h 45% 0 mm WeatherDisplay:10.37 W/m2 SCT
17:15 26.5 °C 14.3 °C 1007.7 hPa Calm   4.8 km/h 47% 0 mm WeatherDisplay:10.37 W/m2 SCT
17:30 26.4 °C 13.9 °C 1007.7 hPa Calm   3.2 km/h 46% 0 mm WeatherDisplay:10.37 W/m2 SCT
17:45 26.6 °C 14.3 °C 1007.3 hPa Calm   1.6 km/h 47% 0 mm WeatherDisplay:10.37 W/m2 SCT
18:00 26.3 °C 14.1 °C 1007.3 hPa Calm   3.2 km/h 47% 0 mm WeatherDisplay:10.37 W/m2 SCT
18:15 26.1 °C 14.2 °C 1007 hPa Calm   3.2 km/h 48% 0 mm WeatherDisplay:10.37 W/m2 SCT
18:30 25.7 °C 14.4 °C 1007 hPa Calm   3.2 km/h 50% 0 mm WeatherDisplay:10.37 W/m2 SCT
18:45 25.3 °C 13.8 °C 1007 hPa Calm   3.2 km/h 49% 0 mm WeatherDisplay:10.37 W/m2 SCT
19:00 25.1 °C 14.3 °C 1007 hPa Calm   3.2 km/h 51% 0 mm WeatherDisplay:10.37 W/m2 SCT
19:15 24.7 °C 14.2 °C 1007 hPa Calm   1.6 km/h 52% 0 mm WeatherDisplay:10.37 W/m2 SCT
19:30 24.4 °C 14.3 °C 1007 hPa Calm   3.2 km/h 53% 0 mm WeatherDisplay:10.37 W/m2 SCT
19:45 24.4 °C 14.6 °C 1007.3 hPa Calm   3.2 km/h 54% 0 mm WeatherDisplay:10.37 W/m2 SCT
20:00 24.1 °C 14.7 °C 1007 hPa Calm   1.6 km/h 56% 0 mm WeatherDisplay:10.37 W/m2 SCT
20:15 23.7 °C 14.9 °C 1007 hPa Calm   1.6 km/h 58% 0 mm WeatherDisplay:10.37 W/m2 SCT
20:30 23.3 °C 14.8 °C 1007.3 hPa Calm   1.6 km/h 59% 0 mm WeatherDisplay:10.37 W/m2 SCT
20:45 22.7 °C 14.6 °C 1007.3 hPa Calm     60% 0 mm WeatherDisplay:10.37 W/m2 SCT
21:00 22.2 °C 14.9 °C 1007.7 hPa Calm     63% 0 mm WeatherDisplay:10.37 W/m2 SCT
21:15 22.1 °C 14.7 °C 1007.7 hPa Calm     63% 0 mm WeatherDisplay:10.37 W/m2 SCT
21:30 21.7 °C 14.6 °C 1008 hPa Calm     64% 0 mm WeatherDisplay:10.37 W/m2 SCT
21:45 21.6 °C 14.7 °C 1008.4 hPa Calm     65% 0 mm WeatherDisplay:10.37 W/m2 SCT
22:00 21.5 °C 15.1 °C 1008.7 hPa Calm     67% 0 mm WeatherDisplay:10.37 W/m2 SCT
22:15 21.6 °C 15 °C 1008.7 hPa Calm   1.6 km/h 66% 0 mm WeatherDisplay:10.37 W/m2 SCT
22:30 21.5 °C 14.9 °C 1008.7 hPa Calm   1.6 km/h 66% 0 mm WeatherDisplay:10.37 W/m2 SCT
22:45 21.3 °C 14.9 °C 1008.7 hPa Calm     67% 0 mm WeatherDisplay:10.37 W/m2 SCT
23:00 21.1 °C 14.4 °C 1009 hPa Calm   1.6 km/h 66% 0 mm WeatherDisplay:10.37 W/m2 SCT
23:15 20.9 °C 14.6 °C 1009 hPa Calm   1.6 km/h 67% 0 mm WeatherDisplay:10.37 W/m2 SCT
23:30 20.7 °C 14.3 °C 1009 hPa Calm   1.6 km/h 67% 0 mm WeatherDisplay:10.37 W/m2 SCT
Piedmont Bend
Compliments of Weather Underground - 4 mb